Time;durP1;ratioP1;P1;durP2;ratioP2;P2;SDS_P1;SDS_P2;PMS_P1;PMS_P2;Temp;Humidity;BMP_temperature;BMP_pressure;BME280_temperature;BME280_humidity;BME280_pressure;Samples;Min_cycle;Max_cycle;Signal;HPM_P1;HPM_P2
2023/03/21 00:00:16;;;;;;;0.30;0.30;;;12.40;99.90;;;;;;6242484;23;20160;-91
2023/03/21 00:02:48;;;;;;;0.30;0.30;;;12.30;99.90;;;;;;6242187;23;20173;-93
2023/03/21 00:05:20;;;;;;;0.97;0.40;;;12.40;99.90;;;;;;6231068;23;20171;-92
2023/03/21 00:07:51;;;;;;;1.33;0.33;;;12.50;99.90;;;;;;6218788;23;20176;-92
2023/03/21 00:10:23;;;;;;;0.40;0.40;;;12.50;99.90;;;;;;6192157;23;20165;-93
2023/03/21 00:13:12;;;;;;;0.30;0.30;;;12.40;99.90;;;;;;6218993;23;20222;-93
2023/03/21 00:15:53;;;;;;;0.50;0.43;;;12.20;99.90;;;;;;6218250;23;20175;-93
2023/03/21 00:18:45;;;;;;;0.50;0.30;;;12.40;99.90;;;;;;6215155;23;20214;-93
2023/03/21 00:21:20;;;;;;;0.57;0.30;;;12.50;99.90;;;;;;6190747;23;20511;-94
2023/03/21 00:24:11;;;;;;;1.60;0.40;;;12.60;99.90;;;;;;6216479;23;20208;-93
2023/03/21 00:26:42;;;;;;;0.63;0.30;;;12.60;99.90;;;;;;6191346;23;20221;-92
2023/03/21 00:29:15;;;;;;;1.23;0.43;;;12.60;99.90;;;;;;6216313;23;20620;-93
2023/03/21 00:31:46;;;;;;;0.23;0.23;;;12.50;99.90;;;;;;6217313;23;20168;-91
2023/03/21 00:34:17;;;;;;;1.53;0.30;;;12.30;99.90;;;;;;6216941;23;20282;-90
2023/03/21 00:37:07;;;;;;;0.77;0.47;;;12.00;99.90;;;;;;6219017;23;20248;-90
2023/03/21 00:39:39;;;;;;;0.73;0.50;;;12.00;99.90;;;;;;6223460;23;20164;-92
2023/03/21 00:42:10;;;;;;;0.40;0.40;;;12.00;99.90;;;;;;6227136;23;20169;-90
2023/03/21 00:44:43;;;;;;;0.67;0.40;;;12.00;99.90;;;;;;6238945;23;20160;-91
2023/03/21 00:47:15;;;;;;;0.30;0.30;;;12.00;99.90;;;;;;6238955;23;20175;-93
2023/03/21 00:49:46;;;;;;;0.90;0.47;;;11.90;99.90;;;;;;6236830;23;20215;-91
2023/03/21 00:52:18;;;;;;;0.43;0.40;;;11.90;99.90;;;;;;6224874;23;20176;-91
2023/03/21 00:55:08;;;;;;;0.57;0.40;;;12.10;99.90;;;;;;6224560;23;20176;-91
2023/03/21 00:57:40;;;;;;;0.60;0.60;;;11.80;99.90;;;;;;6224489;23;20231;-91
2023/03/21 01:00:17;;;;;;;5.10;0.67;;;11.70;99.90;;;;;;6219304;23;20165;-93
2023/03/21 01:02:57;;;;;;;0.50;0.50;;;11.60;99.90;;;;;;6193139;23;20172;-93
2023/03/21 01:06:04;;;;;;;0.60;0.60;;;11.50;99.90;;;;;;6219672;23;20168;-93
2023/03/21 01:08:37;;;;;;;1.70;0.50;;;11.50;99.90;;;;;;6222243;23;20619;-93
2023/03/21 01:11:25;;;;;;;1.63;0.57;;;11.70;99.90;;;;;;6221814;23;20206;-93
2023/03/21 01:13:56;;;;;;;1.30;0.60;;;11.70;99.90;;;;;;6218837;23;20208;-92
2023/03/21 01:16:50;;;;;;;0.73;0.70;;;11.60;99.90;;;;;;6218917;23;20204;-93
2023/03/21 01:19:25;;;;;;;1.10;0.50;;;11.50;99.90;;;;;;6217666;23;20631;-93
2023/03/21 01:22:13;;;;;;;0.60;0.53;;;11.40;99.90;;;;;;6217979;23;20168;-92
2023/03/21 01:24:45;;;;;;;0.73;0.70;;;11.30;99.90;;;;;;6216688;23;20239;-95
2023/03/21 01:27:26;;;;;;;0.40;0.40;;;11.30;99.90;;;;;;6217955;23;20176;-93
2023/03/21 01:29:57;;;;;;;0.80;0.73;;;11.30;99.90;;;;;;6219695;23;20173;-93
2023/03/21 01:32:32;;;;;;;1.37;0.87;;;11.30;99.90;;;;;;6218049;23;20506;-93
2023/03/21 01:35:05;;;;;;;1.03;0.80;;;11.20;99.90;;;;;;6217641;23;20176;-91
2023/03/21 01:37:37;;;;;;;2.80;0.80;;;11.30;99.90;;;;;;6217029;23;20520;-91
2023/03/21 01:40:11;;;;;;;0.93;0.60;;;11.20;99.90;;;;;;6217778;23;20173;-90
2023/03/21 01:42:42;;;;;;;1.97;0.70;;;11.10;99.90;;;;;;6217628;23;20198;-92
2023/03/21 01:45:42;;;;;;;1.10;0.70;;;11.10;99.90;;;;;;6217505;23;20239;-91
2023/03/21 01:48:16;;;;;;;1.03;0.77;;;11.10;99.90;;;;;;6200910;23;20177;-92
2023/03/21 01:50:48;;;;;;;0.70;0.60;;;11.10;99.90;;;;;;6217785;23;20235;-90
2023/03/21 01:53:22;;;;;;;1.97;0.93;;;10.90;99.90;;;;;;6218244;23;20200;-91
2023/03/21 01:55:54;;;;;;;1.30;0.77;;;10.80;99.90;;;;;;6218204;23;20172;-91
2023/03/21 01:58:26;;;;;;;0.80;0.60;;;10.80;99.90;;;;;;6216838;23;20700;-90
2023/03/21 02:00:57;;;;;;;0.77;0.77;;;10.80;99.90;;;;;;6218872;23;20219;-91
2023/03/21 02:03:36;;;;;;;1.53;0.70;;;10.80;99.90;;;;;;6225866;23;20168;-91
2023/03/21 02:06:12;;;;;;;0.83;0.60;;;10.80;99.90;;;;;;6241887;23;20168;-92
2023/03/21 02:08:44;;;;;;;1.87;1.10;;;10.70;99.90;;;;;;6240427;23;20194;-93
2023/03/21 02:11:15;;;;;;;1.13;1.00;;;10.70;99.90;;;;;;6221972;23;20164;-92
2023/03/21 02:13:47;;;;;;;1.40;1.10;;;10.70;99.90;;;;;;6220098;23;20211;-92
2023/03/21 02:16:36;;;;;;;4.73;1.07;;;10.60;99.90;;;;;;6224670;23;20172;-92
2023/03/21 02:19:32;;;;;;;1.40;1.00;;;10.60;99.90;;;;;;6219197;23;20169;-92
2023/03/21 02:22:35;;;;;;;1.67;1.10;;;10.60;99.90;;;;;;6219234;23;20176;-93
2023/03/21 02:25:46;;;;;;;1.00;0.80;;;10.70;99.90;;;;;;6219743;23;20180;-93
2023/03/21 02:28:25;;;;;;;5.10;1.10;;;10.90;99.90;;;;;;6224124;23;20681;-94
2023/03/21 02:31:27;;;;;;;2.73;1.10;;;10.70;99.90;;;;;;6219597;23;20199;-88
2023/03/21 02:34:47;;;;;;;5.03;1.10;;;10.50;99.90;;;;;;6230194;23;20215;-96
2023/03/21 02:37:36;;;;;;;1.17;0.70;;;10.50;99.90;;;;;;6225588;23;20180;-96
2023/03/21 02:40:15;;;;;;;1.27;0.90;;;10.50;99.90;;;;;;6222953;23;20188;-95
2023/03/21 02:43:01;;;;;;;0.83;0.67;;;10.50;99.90;;;;;;6224276;23;20527;-96
2023/03/21 02:45:41;;;;;;;0.70;0.60;;;10.40;99.90;;;;;;6226304;23;20172;-96
2023/03/21 02:48:16;;;;;;;0.63;0.63;;;10.40;99.90;;;;;;6234554;23;20195;-96
2023/03/21 02:51:04;;;;;;;1.70;0.63;;;10.30;99.90;;;;;;6207354;23;20215;-96
2023/03/21 02:53:42;;;;;;;1.10;0.80;;;10.30;99.90;;;;;;6202892;23;20596;-96
2023/03/21 02:56:15;;;;;;;1.03;0.70;;;10.30;99.90;;;;;;6210764;23;20210;-96
2023/03/21 02:58:48;;;;;;;1.10;0.90;;;10.20;99.90;;;;;;6233952;23;20199;-95
2023/03/21 03:01:20;;;;;;;0.73;0.73;;;10.20;99.90;;;;;;6209028;23;20186;-96
2023/03/21 03:03:53;;;;;;;1.27;0.60;;;10.10;99.90;;;;;;6228870;23;20176;-95
2023/03/21 03:06:28;;;;;;;0.67;0.67;;;10.10;99.90;;;;;;6216628;23;20196;-89
2023/03/21 03:09:18;;;;;;;0.80;0.60;;;10.10;99.90;;;;;;6215183;23;20234;-90
2023/03/21 03:11:59;;;;;;;0.90;0.50;;;10.00;99.90;;;;;;6216179;23;20179;-91
2023/03/21 03:14:47;;;;;;;2.17;0.70;;;10.00;99.90;;;;;;6216837;23;20670;-92
2023/03/21 03:17:42;;;;;;;1.13;0.80;;;10.00;99.90;;;;;;6215732;23;20179;-90
2023/03/21 03:20:29;;;;;;;4.10;0.90;;;10.00;99.90;;;;;;6216133;23;20502;-89
2023/03/21 03:23:10;;;;;;;1.10;0.70;;;10.10;99.90;;;;;;6190368;23;20278;-93
2023/03/21 03:25:48;;;;;;;0.70;0.70;;;10.10;99.90;;;;;;6215375;23;20207;-91
2023/03/21 03:28:24;;;;;;;0.80;0.70;;;10.00;99.90;;;;;;6214337;23;20239;-90
2023/03/21 03:30:56;;;;;;;0.70;0.70;;;9.90;99.90;;;;;;6215531;23;20172;-92
2023/03/21 03:33:41;;;;;;;1.30;0.60;;;10.00;99.90;;;;;;6215638;23;20176;-90
2023/03/21 03:36:17;;;;;;;0.63;0.60;;;10.00;99.90;;;;;;6215306;23;20179;-90
2023/03/21 03:39:07;;;;;;;0.83;0.70;;;10.00;99.90;;;;;;6216224;23;20635;-91
2023/03/21 03:41:46;;;;;;;2.07;0.70;;;10.00;99.90;;;;;;6217059;23;20164;-90
2023/03/21 03:44:39;;;;;;;2.10;0.60;;;10.00;99.90;;;;;;6215915;23;20264;-89
2023/03/21 03:47:12;;;;;;;2.03;0.73;;;9.90;99.90;;;;;;6216914;23;20176;-89
2023/03/21 03:50:02;;;;;;;1.17;0.80;;;9.90;99.90;;;;;;6215566;23;20673;-90
2023/03/21 03:52:37;;;;;;;1.47;1.03;;;9.90;99.90;;;;;;6216363;23;20180;-90
2023/03/21 03:55:25;;;;;;;1.13;0.90;;;9.90;99.90;;;;;;6216139;23;20203;-90
2023/03/21 03:57:59;;;;;;;1.17;0.60;;;9.90;99.90;;;;;;6215105;23;20314;-90
2023/03/21 04:00:34;;;;;;;0.70;0.70;;;9.90;99.90;;;;;;6217579;23;20626;-90
2023/03/21 04:03:08;;;;;;;1.07;0.70;;;9.80;99.90;;;;;;6216445;23;20197;-89
2023/03/21 04:05:40;;;;;;;1.57;0.90;;;9.80;99.90;;;;;;6217130;23;20184;-90
2023/03/21 04:08:12;;;;;;;1.10;0.83;;;9.70;99.90;;;;;;6215614;23;20179;-90
2023/03/21 04:10:44;;;;;;;1.00;0.90;;;9.70;99.90;;;;;;6233537;23;20173;-90
2023/03/21 04:13:18;;;;;;;1.30;1.20;;;9.60;99.90;;;;;;6234671;23;20682;-89
2023/03/21 04:15:50;;;;;;;2.40;1.00;;;9.60;99.90;;;;;;6222907;23;20196;-90
2023/03/21 04:18:23;;;;;;;1.40;0.70;;;9.50;99.90;;;;;;6218688;23;20195;-90
2023/03/21 04:20:55;;;;;;;2.37;1.20;;;9.40;99.90;;;;;;6204734;23;20168;-90
2023/03/21 04:23:28;;;;;;;2.10;1.00;;;9.40;99.90;;;;;;6198293;23;20173;-90
2023/03/21 04:25:59;;;;;;;1.10;0.80;;;9.30;99.90;;;;;;6223820;23;20254;-90
2023/03/21 04:28:34;;;;;;;1.10;1.00;;;9.30;99.90;;;;;;6218673;23;20180;-91
2023/03/21 04:31:08;;;;;;;1.23;0.90;;;9.30;99.90;;;;;;6218049;23;20169;-91
2023/03/21 04:33:54;;;;;;;1.63;0.90;;;9.30;99.90;;;;;;6217434;23;20176;-91
2023/03/21 04:36:32;;;;;;;0.90;0.90;;;9.20;99.90;;;;;;6217324;23;20204;-90
2023/03/21 04:39:08;;;;;;;0.97;0.90;;;9.20;99.90;;;;;;6191863;23;20258;-91
2023/03/21 04:41:40;;;;;;;1.13;1.03;;;9.20;99.90;;;;;;6218782;23;20664;-90
2023/03/21 04:44:15;;;;;;;1.37;1.10;;;9.20;99.90;;;;;;6218276;23;20235;-91
2023/03/21 04:46:47;;;;;;;0.80;0.80;;;9.20;99.90;;;;;;6216828;23;20184;-89
2023/03/21 04:49:19;;;;;;;1.17;0.90;;;9.20;99.90;;;;;;6216036;23;20549;-91
2023/03/21 04:51:51;;;;;;;1.47;0.70;;;9.20;99.90;;;;;;6219119;23;20164;-90
2023/03/21 04:54:22;;;;;;;0.93;0.80;;;9.20;99.90;;;;;;6217760;23;20219;-90
2023/03/21 04:56:54;;;;;;;2.70;0.70;;;9.20;99.90;;;;;;6217570;23;20500;-90
2023/03/21 04:59:27;;;;;;;0.60;0.60;;;9.20;99.90;;;;;;6216315;23;20177;-90
2023/03/21 05:01:58;;;;;;;0.50;0.50;;;9.20;99.90;;;;;;6217646;23;20169;-90
2023/03/21 05:04:30;;;;;;;0.87;0.60;;;9.20;99.90;;;;;;6217355;23;20172;-90
2023/03/21 05:07:01;;;;;;;0.70;0.70;;;9.20;99.90;;;;;;6217574;23;20227;-89
2023/03/21 05:09:33;;;;;;;1.20;0.70;;;9.20;99.90;;;;;;6216738;23;20180;-89
2023/03/21 05:12:05;;;;;;;0.80;0.60;;;9.10;99.90;;;;;;6218819;23;20173;-90
2023/03/21 05:14:39;;;;;;;0.90;0.57;;;9.10;99.90;;;;;;6218742;23;20227;-90
2023/03/21 05:17:14;;;;;;;0.43;0.43;;;9.10;99.90;;;;;;6217071;23;20215;-89
2023/03/21 05:19:46;;;;;;;0.67;0.60;;;9.10;99.90;;;;;;6217465;23;20164;-91
2023/03/21 05:22:19;;;;;;;0.60;0.60;;;9.10;99.90;;;;;;6218091;23;20184;-90
2023/03/21 05:24:54;;;;;;;1.03;0.60;;;9.10;99.90;;;;;;6218499;23;20599;-90
2023/03/21 05:30:17;;;;;;;0.40;0.40;;;9.20;99.90;;;;;;6218536;23;20165;-91
2023/03/21 05:32:50;;;;;;;0.73;0.50;;;9.20;99.90;;;;;;6217482;23;20184;-91
2023/03/21 05:35:21;;;;;;;0.40;0.40;;;9.20;99.90;;;;;;6218164;23;20239;-91
2023/03/21 05:37:56;;;;;;;0.40;0.40;;;9.20;99.90;;;;;;6217808;23;20159;-90
2023/03/21 05:40:28;;;;;;;0.67;0.60;;;9.20;99.90;;;;;;6194099;23;20215;-90
2023/03/21 05:42:59;;;;;;;1.20;0.50;;;9.20;99.90;;;;;;6221218;23;20169;-91
2023/03/21 05:45:33;;;;;;;0.50;0.50;;;9.20;99.90;;;;;;6220060;23;20169;-91
2023/03/21 05:48:05;;;;;;;0.60;0.47;;;9.20;99.90;;;;;;6218024;23;20168;-90
2023/03/21 05:50:37;;;;;;;0.57;0.50;;;9.20;99.90;;;;;;6218458;23;20188;-91
2023/03/21 05:53:09;;;;;;;0.50;0.50;;;9.20;99.90;;;;;;6219400;23;20510;-90
2023/03/21 05:55:41;;;;;;;0.50;0.50;;;9.20;99.90;;;;;;6216512;23;20196;-90
2023/03/21 05:58:12;;;;;;;1.60;0.40;;;9.20;99.90;;;;;;6217258;23;20223;-88
2023/03/21 06:00:45;;;;;;;0.87;0.50;;;9.20;99.90;;;;;;6218744;23;20172;-89
2023/03/21 06:03:17;;;;;;;1.27;0.50;;;9.20;99.90;;;;;;6192455;23;20226;-89
2023/03/21 06:05:48;;;;;;;0.50;0.50;;;9.20;99.90;;;;;;6220668;23;20181;-90
2023/03/21 06:08:20;;;;;;;1.43;0.50;;;9.20;99.90;;;;;;6218120;23;20224;-89
2023/03/21 06:10:51;;;;;;;1.10;0.70;;;9.20;99.90;;;;;;6218939;23;20164;-89
2023/03/21 06:13:22;;;;;;;0.93;0.57;;;9.20;99.90;;;;;;6217974;23;20227;-89
2023/03/21 06:15:55;;;;;;;0.53;0.53;;;9.20;99.90;;;;;;6219339;23;20231;-90
2023/03/21 06:18:29;;;;;;;1.23;0.53;;;9.20;99.90;;;;;;6222482;23;20164;-88
2023/03/21 06:21:00;;;;;;;0.63;0.63;;;9.20;99.90;;;;;;6231570;23;20180;-89
2023/03/21 06:23:32;;;;;;;0.43;0.43;;;9.10;99.90;;;;;;6240947;23;20176;-89
2023/03/21 06:26:04;;;;;;;0.50;0.50;;;9.10;99.90;;;;;;6241896;23;20176;-90
2023/03/21 06:28:35;;;;;;;0.80;0.67;;;9.10;99.90;;;;;;6239288;23;20208;-90
2023/03/21 06:31:09;;;;;;;1.50;0.50;;;9.10;99.90;;;;;;6239278;23;20559;-91
2023/03/21 06:33:41;;;;;;;0.50;0.50;;;9.10;99.90;;;;;;6237004;23;20310;-92
2023/03/21 06:36:13;;;;;;;2.00;0.77;;;9.00;99.90;;;;;;6224510;23;20212;-93
2023/03/21 06:38:45;;;;;;;0.50;0.50;;;9.00;99.90;;;;;;6222077;23;20172;-93
2023/03/21 06:41:18;;;;;;;0.50;0.50;;;9.00;99.90;;;;;;6224251;23;20176;-92
2023/03/21 06:43:50;;;;;;;1.30;0.80;;;8.90;99.90;;;;;;6226629;23;20168;-89
2023/03/21 06:46:24;;;;;;;0.97;0.60;;;8.90;99.90;;;;;;6221475;23;20231;-90
2023/03/21 06:48:56;;;;;;;0.50;0.50;;;9.00;99.90;;;;;;6221651;23;20202;-89
2023/03/21 06:51:27;;;;;;;0.87;0.60;;;9.00;99.90;;;;;;6220693;23;20790;-90
2023/03/21 06:53:58;;;;;;;0.60;0.60;;;9.00;99.90;;;;;;6220480;23;20681;-90
2023/03/21 06:56:30;;;;;;;1.43;0.70;;;9.00;99.90;;;;;;6218370;23;20199;-91
2023/03/21 06:59:03;;;;;;;0.80;0.60;;;9.00;99.90;;;;;;6217126;23;20165;-91
2023/03/21 07:01:37;;;;;;;1.43;0.60;;;9.00;99.90;;;;;;6217791;23;20230;-89
2023/03/21 07:04:10;;;;;;;0.80;0.80;;;9.00;99.90;;;;;;6217425;23;20546;-89
2023/03/21 07:06:42;;;;;;;0.57;0.57;;;8.90;99.90;;;;;;6193579;23;20215;-88
2023/03/21 07:09:16;;;;;;;0.77;0.60;;;8.90;99.90;;;;;;6216995;23;20185;-89
2023/03/21 07:11:49;;;;;;;0.60;0.60;;;8.90;99.90;;;;;;6217165;23;20495;-89
2023/03/21 07:14:20;;;;;;;1.43;0.70;;;8.90;99.90;;;;;;6218397;23;20599;-88
2023/03/21 07:16:54;;;;;;;1.13;1.00;;;8.90;99.90;;;;;;6218679;23;20199;-88
2023/03/21 07:19:26;;;;;;;0.80;0.60;;;8.90;99.90;;;;;;6216752;23;20187;-89
2023/03/21 07:21:57;;;;;;;0.70;0.70;;;8.90;99.90;;;;;;6217015;23;20169;-89
2023/03/21 07:24:28;;;;;;;0.60;0.60;;;8.90;99.90;;;;;;6218730;23;20211;-89
2023/03/21 07:27:00;;;;;;;1.10;0.90;;;8.80;99.90;;;;;;6221393;23;20172;-89
2023/03/21 07:29:32;;;;;;;1.20;0.70;;;8.90;99.90;;;;;;6218938;23;20172;-89
2023/03/21 07:32:06;;;;;;;3.07;0.80;;;8.90;99.90;;;;;;6218051;23;20176;-89
2023/03/21 07:34:38;;;;;;;0.87;0.70;;;8.80;99.90;;;;;;6218479;23;20176;-90
2023/03/21 07:37:09;;;;;;;0.70;0.70;;;8.80;99.90;;;;;;6216649;23;20192;-89
2023/03/21 07:39:41;;;;;;;0.83;0.73;;;8.80;99.90;;;;;;6216685;23;20247;-90
2023/03/21 07:42:13;;;;;;;3.10;0.73;;;8.80;99.90;;;;;;6216937;23;20168;-89
2023/03/21 07:44:45;;;;;;;0.77;0.77;;;8.70;99.90;;;;;;6215538;23;20184;-89
2023/03/21 07:47:20;;;;;;;1.33;0.60;;;8.70;99.90;;;;;;6217561;23;20219;-91
2023/03/21 07:49:52;;;;;;;0.87;0.73;;;8.80;99.90;;;;;;6217422;23;20538;-90
2023/03/21 07:52:25;;;;;;;0.70;0.70;;;8.80;99.90;;;;;;6217305;23;20169;-88
2023/03/21 07:54:56;;;;;;;0.87;0.67;;;8.80;99.90;;;;;;6217671;23;20168;-89
2023/03/21 07:57:28;;;;;;;2.90;0.70;;;8.80;99.90;;;;;;6216008;23;20583;-89
2023/03/21 07:59:59;;;;;;;1.43;0.70;;;8.80;99.90;;;;;;6216577;23;20164;-90
2023/03/21 08:02:32;;;;;;;1.43;0.60;;;8.80;99.90;;;;;;6217143;23;20168;-89
2023/03/21 08:05:04;;;;;;;0.80;0.70;;;8.80;99.90;;;;;;6215910;23;20182;-88
2023/03/21 08:07:35;;;;;;;2.07;0.83;;;8.90;99.90;;;;;;6216747;23;20227;-89
2023/03/21 08:10:09;;;;;;;0.67;0.67;;;8.80;99.90;;;;;;6216250;23;20176;-89
2023/03/21 08:12:40;;;;;;;1.03;0.60;;;8.80;99.90;;;;;;6191613;23;20255;-90
2023/03/21 08:15:13;;;;;;;0.67;0.53;;;8.80;99.90;;;;;;6217145;23;20180;-89
2023/03/21 08:17:47;;;;;;;0.70;0.70;;;8.80;99.90;;;;;;6216848;23;20196;-88
2023/03/21 08:20:23;;;;;;;1.20;0.77;;;8.80;99.90;;;;;;6217058;23;20176;-89
2023/03/21 08:22:55;;;;;;;0.40;0.40;;;8.70;99.90;;;;;;6217551;23;20194;-89
2023/03/21 08:25:26;;;;;;;0.73;0.60;;;8.60;99.90;;;;;;6216674;23;20231;-88
2023/03/21 08:27:57;;;;;;;0.50;0.50;;;8.60;99.90;;;;;;6234472;23;20165;-89
2023/03/21 08:30:30;;;;;;;0.43;0.43;;;8.70;99.90;;;;;;6239499;23;20180;-89
2023/03/21 08:33:04;;;;;;;0.83;0.53;;;8.80;99.90;;;;;;6229972;23;20248;-89
2023/03/21 08:35:36;;;;;;;0.50;0.50;;;8.70;99.90;;;;;;6189996;23;20174;-89
2023/03/21 08:38:11;;;;;;;1.07;0.63;;;8.60;99.90;;;;;;6214854;23;20205;-89
2023/03/21 08:40:42;;;;;;;0.60;0.60;;;8.60;99.90;;;;;;6215947;23;20173;-89
2023/03/21 08:43:14;;;;;;;0.80;0.60;;;8.60;99.90;;;;;;6215906;23;20168;-89
2023/03/21 08:45:46;;;;;;;1.23;0.57;;;8.60;99.90;;;;;;6216811;23;20165;-89
2023/03/21 08:48:19;;;;;;;1.63;0.67;;;8.60;99.90;;;;;;6190640;23;20223;-89
2023/03/21 08:50:51;;;;;;;0.53;0.50;;;8.60;99.90;;;;;;6217111;23;20246;-91
2023/03/21 08:53:22;;;;;;;1.03;0.50;;;8.70;99.90;;;;;;6217836;23;20473;-90
2023/03/21 08:55:54;;;;;;;0.93;0.50;;;8.50;99.90;;;;;;6216432;23;20165;-89
2023/03/21 08:58:26;;;;;;;1.67;0.67;;;8.50;99.90;;;;;;6215684;23;20196;-90
2023/03/21 09:00:57;;;;;;;1.67;0.60;;;8.40;99.90;;;;;;6216337;23;20165;-90
2023/03/21 09:03:30;;;;;;;2.27;0.60;;;8.40;99.90;;;;;;6215984;23;20180;-90
2023/03/21 09:06:01;;;;;;;1.97;0.60;;;8.30;99.90;;;;;;6217147;23;20169;-89
2023/03/21 09:08:33;;;;;;;0.97;0.60;;;8.30;99.90;;;;;;6215541;23;20678;-89
2023/03/21 09:11:06;;;;;;;0.53;0.50;;;8.20;99.90;;;;;;6217403;23;20172;-89
2023/03/21 09:13:37;;;;;;;0.50;0.43;;;8.30;99.90;;;;;;6217313;23;20169;-88
2023/03/21 09:16:09;;;;;;;0.70;0.60;;;8.20;99.90;;;;;;6218846;23;20176;-88
2023/03/21 09:18:49;;;;;;;1.47;0.67;;;8.20;99.90;;;;;;6217119;23;20218;-88
2023/03/21 09:21:21;;;;;;;1.83;0.70;;;8.10;99.90;;;;;;6218264;23;20642;-89
2023/03/21 09:23:55;;;;;;;1.33;0.70;;;8.10;99.90;;;;;;6192571;23;20223;-88
2023/03/21 09:26:28;;;;;;;0.67;0.50;;;8.00;99.90;;;;;;6217316;23;20172;-87
2023/03/21 09:28:59;;;;;;;0.40;0.40;;;8.00;99.90;;;;;;6216988;23;20173;-88
2023/03/21 09:31:32;;;;;;;0.47;0.40;;;8.00;99.90;;;;;;6218503;23;20169;-88
2023/03/21 09:34:06;;;;;;;0.50;0.50;;;8.00;99.90;;;;;;6217933;23;20259;-88
2023/03/21 09:36:40;;;;;;;0.40;0.40;;;8.10;99.90;;;;;;6217671;23;20169;-89
2023/03/21 09:39:12;;;;;;;0.50;0.47;;;8.00;99.90;;;;;;6191528;23;20180;-88
2023/03/21 09:42:00;;;;;;;0.73;0.60;;;7.90;99.90;;;;;;6217187;23;20219;-89
2023/03/21 09:45:00;;;;;;;1.73;0.50;;;7.90;99.90;;;;;;6217712;23;20227;-89
2023/03/21 09:47:36;;;;;;;1.80;0.40;;;7.90;99.90;;;;;;6217196;23;20177;-89
2023/03/21 09:50:18;;;;;;;1.23;0.50;;;7.90;99.90;;;;;;6217688;23;20184;-89
2023/03/21 09:52:55;;;;;;;0.87;0.67;;;7.80;99.90;;;;;;6217652;23;20177;-89
2023/03/21 09:55:31;;;;;;;0.80;0.60;;;7.70;99.90;;;;;;6216102;23;20223;-88
2023/03/21 09:58:07;;;;;;;0.93;0.50;;;7.60;99.90;;;;;;6216417;23;20254;-89
2023/03/21 10:00:41;;;;;;;1.63;0.90;;;7.70;99.90;;;;;;6218115;23;20164;-88
2023/03/21 10:03:23;;;;;;;0.63;0.63;;;7.60;99.90;;;;;;6217941;23;20172;-90
2023/03/21 10:06:00;;;;;;;0.53;0.53;;;7.50;99.90;;;;;;6217972;23;20222;-89
2023/03/21 10:08:35;;;;;;;1.00;0.60;;;7.50;99.90;;;;;;6216794;23;20211;-89
2023/03/21 10:11:13;;;;;;;0.67;0.53;;;7.60;99.90;;;;;;6217447;23;20172;-89
2023/03/21 10:13:49;;;;;;;1.37;0.80;;;7.50;99.90;;;;;;6218418;23;20179;-89
2023/03/21 10:16:26;;;;;;;0.40;0.40;;;7.50;99.90;;;;;;6219175;23;20482;-87
2023/03/21 10:19:00;;;;;;;0.67;0.50;;;7.50;99.90;;;;;;6216717;23;20240;-88
2023/03/21 10:21:33;;;;;;;0.63;0.50;;;7.50;99.90;;;;;;6217669;23;20168;-87
2023/03/21 10:24:28;;;;;;;0.80;0.50;;;7.50;99.90;;;;;;6217409;23;20571;-88
2023/03/21 10:26:59;;;;;;;0.43;0.43;;;7.50;99.90;;;;;;6221729;23;20207;-87
2023/03/21 10:29:35;;;;;;;0.50;0.30;;;7.50;99.90;;;;;;6219980;23;20184;-88
2023/03/21 10:32:11;;;;;;;0.50;0.40;;;7.50;99.90;;;;;;6240862;23;20184;-88
2023/03/21 10:34:46;;;;;;;0.50;0.50;;;7.50;99.90;;;;;;6234741;23;20180;-88
2023/03/21 10:37:20;;;;;;;2.77;0.80;;;7.40;99.90;;;;;;6221193;23;20207;-90
2023/03/21 10:39:54;;;;;;;0.40;0.40;;;7.50;99.90;;;;;;6220555;23;20178;-89
2023/03/21 10:42:28;;;;;;;0.50;0.40;;;7.50;99.90;;;;;;6215994;23;20176;-88
2023/03/21 10:45:00;;;;;;;0.80;0.50;;;7.50;99.90;;;;;;6216727;23;20666;-89
2023/03/21 10:47:34;;;;;;;1.17;0.50;;;7.50;99.90;;;;;;6217460;23;20169;-89
2023/03/21 10:50:08;;;;;;;1.20;0.60;;;7.50;99.90;;;;;;6217164;23;20180;-89
2023/03/21 10:52:48;;;;;;;1.20;0.30;;;7.50;99.90;;;;;;6216694;23;20232;-90
2023/03/21 10:55:25;;;;;;;1.40;0.50;;;7.50;99.90;;;;;;6216903;23;20230;-89
2023/03/21 10:58:00;;;;;;;1.27;0.50;;;7.40;99.90;;;;;;6216504;23;20274;-89
2023/03/21 11:00:37;;;;;;;0.53;0.53;;;7.40;99.90;;;;;;6217449;23;20165;-90
2023/03/21 11:03:20;;;;;;;1.63;0.70;;;7.40;99.90;;;;;;6217531;23;20503;-89
2023/03/21 11:05:57;;;;;;;1.13;0.60;;;7.40;99.90;;;;;;6217279;23;20172;-89
2023/03/21 11:08:32;;;;;;;1.47;0.43;;;7.40;99.90;;;;;;6216203;23;20176;-90
2023/03/21 11:11:05;;;;;;;0.80;0.50;;;7.40;99.90;;;;;;6216745;23;20241;-90
2023/03/21 11:13:40;;;;;;;2.00;0.50;;;7.40;99.90;;;;;;6216147;23;20180;-89
2023/03/21 11:16:19;;;;;;;1.90;0.50;;;7.50;99.90;;;;;;6217297;23;20175;-90
2023/03/21 11:18:53;;;;;;;1.57;0.50;;;7.50;99.90;;;;;;6216035;23;20533;-90
2023/03/21 11:21:27;;;;;;;1.23;0.57;;;7.50;99.90;;;;;;6216727;23;20165;-88
2023/03/21 11:24:01;;;;;;;0.70;0.67;;;7.60;99.90;;;;;;6216591;23;20243;-88
2023/03/21 11:26:35;;;;;;;1.03;0.60;;;7.60;99.90;;;;;;6216574;23;20176;-89
2023/03/21 11:29:31;;;;;;;0.70;0.70;;;7.70;99.90;;;;;;6215108;23;20176;-88
2023/03/21 11:32:12;;;;;;;1.17;0.70;;;7.70;99.90;;;;;;6184557;23;20184;-89
2023/03/21 11:34:52;;;;;;;1.93;0.93;;;7.70;99.90;;;;;;6190176;23;20171;-88
2023/03/21 11:37:28;;;;;;;1.27;0.90;;;7.70;99.90;;;;;;6215261;23;20313;-88
2023/03/21 11:40:18;;;;;;;1.17;0.90;;;7.70;99.90;;;;;;6216511;23;20196;-89
2023/03/21 11:42:52;;;;;;;1.17;0.80;;;7.80;99.90;;;;;;6216076;23;20235;-88
2023/03/21 11:45:25;;;;;;;2.00;1.10;;;7.80;99.90;;;;;;6216430;23;20169;-89
2023/03/21 11:47:59;;;;;;;1.03;0.93;;;7.80;99.90;;;;;;6216568;23;20192;-89
2023/03/21 11:50:34;;;;;;;1.30;1.03;;;7.80;99.90;;;;;;6216773;23;20183;-89
2023/03/21 11:53:25;;;;;;;2.40;1.30;;;7.80;99.90;;;;;;6191610;23;20179;-89
2023/03/21 11:56:11;;;;;;;1.73;1.20;;;7.90;99.90;;;;;;6216678;23;20169;-90
2023/03/21 11:58:54;;;;;;;1.43;1.10;;;7.90;99.90;;;;;;6217155;23;20928;-89
2023/03/21 12:01:33;;;;;;;0.80;0.80;;;7.90;99.90;;;;;;6218549;23;20215;-90
2023/03/21 12:04:21;;;;;;;3.50;0.80;;;7.90;99.90;;;;;;6229275;23;20169;-90
2023/03/21 12:06:57;;;;;;;0.70;0.70;;;7.90;99.90;;;;;;6239343;23;20156;-90
2023/03/21 12:09:38;;;;;;;1.10;1.00;;;7.90;99.90;;;;;;6238328;23;20172;-90
2023/03/21 12:12:23;;;;;;;0.87;0.87;;;7.80;99.90;;;;;;6231122;23;20604;-90
2023/03/21 12:15:17;;;;;;;1.50;0.90;;;7.80;99.90;;;;;;6222058;23;20181;-90
2023/03/21 12:18:02;;;;;;;0.70;0.60;;;7.90;99.90;;;;;;6195734;23;20216;-89
2023/03/21 12:20:42;;;;;;;1.60;0.60;;;7.90;99.90;;;;;;6219433;23;20173;-89
2023/03/21 12:23:49;;;;;;;1.00;0.70;;;7.90;99.90;;;;;;6217779;23;20180;-89
2023/03/21 12:26:25;;;;;;;1.87;0.70;;;7.90;99.90;;;;;;6216565;23;20268;-88
2023/03/21 12:29:16;;;;;;;1.63;0.60;;;7.90;99.90;;;;;;6216520;23;20176;-88
2023/03/21 12:32:00;;;;;;;2.10;1.00;;;7.80;99.90;;;;;;6217431;23;20169;-88
2023/03/21 12:34:57;;;;;;;1.10;0.70;;;7.90;99.90;;;;;;6211739;23;20168;-88
2023/03/21 12:37:38;;;;;;;0.53;0.40;;;7.90;99.90;;;;;;6239373;23;20199;-88
2023/03/21 12:40:18;;;;;;;0.83;0.77;;;7.90;99.90;;;;;;6225007;23;20215;-88
2023/03/21 12:43:19;;;;;;;0.87;0.70;;;7.90;99.90;;;;;;6192603;23;20180;-89
2023/03/21 12:45:56;;;;;;;0.80;0.80;;;7.80;99.90;;;;;;6217789;23;20233;-88
2023/03/21 12:48:35;;;;;;;1.37;0.67;;;7.90;99.90;;;;;;6192595;23;20214;-89
2023/03/21 12:51:09;;;;;;;1.07;0.50;;;8.00;99.90;;;;;;6217924;23;20195;-88
2023/03/21 12:53:51;;;;;;;0.70;0.60;;;8.00;99.90;;;;;;6217987;23;20160;-88
2023/03/21 12:56:28;;;;;;;1.93;0.53;;;7.80;99.90;;;;;;6217524;23;20227;-89
2023/03/21 12:59:07;;;;;;;1.20;0.60;;;7.80;99.90;;;;;;6216772;23;20196;-89
2023/03/21 13:01:43;;;;;;;1.23;0.57;;;7.70;99.90;;;;;;6218429;23;20169;-89
2023/03/21 13:04:39;;;;;;;0.40;0.40;;;7.70;99.90;;;;;;6217993;23;20176;-89
2023/03/21 13:07:16;;;;;;;2.10;0.60;;;7.60;99.90;;;;;;6218187;23;20169;-88
2023/03/21 13:09:50;;;;;;;2.00;0.50;;;7.50;99.90;;;;;;6218087;23;20184;-90
2023/03/21 13:12:42;;;;;;;1.40;0.60;;;7.50;99.90;;;;;;6192138;23;20195;-89
2023/03/21 13:15:49;;;;;;;1.43;0.63;;;7.50;99.90;;;;;;6217565;23;20184;-89
2023/03/21 13:18:31;;;;;;;2.27;0.60;;;7.60;99.90;;;;;;6191072;23;20171;-89
2023/03/21 13:21:06;;;;;;;1.60;0.53;;;7.60;99.90;;;;;;6218835;23;20226;-90
2023/03/21 13:23:40;;;;;;;1.73;0.60;;;7.70;99.90;;;;;;6194009;23;20167;-89
2023/03/21 13:26:12;;;;;;;1.43;0.60;;;7.90;99.90;;;;;;6219191;23;20168;-88
2023/03/21 13:28:44;;;;;;;2.63;0.60;;;7.80;99.90;;;;;;6216415;23;20165;-90
2023/03/21 13:31:23;;;;;;;0.93;0.50;;;7.70;99.90;;;;;;6217488;23;20176;-89
2023/03/21 13:34:00;;;;;;;1.23;0.57;;;7.70;99.90;;;;;;6217238;23;20176;-89
2023/03/21 13:36:36;;;;;;;1.83;0.60;;;7.70;99.90;;;;;;6217519;23;20619;-89
2023/03/21 13:39:17;;;;;;;0.70;0.60;;;7.70;99.90;;;;;;6215898;23;20274;-89
2023/03/21 13:41:49;;;;;;;1.07;0.87;;;7.70;99.90;;;;;;6216840;23;20199;-88
2023/03/21 13:44:37;;;;;;;1.37;0.67;;;7.70;99.90;;;;;;6216271;23;20226;-90
2023/03/21 13:47:31;;;;;;;0.80;0.70;;;7.70;99.90;;;;;;6216949;23;20177;-88